createdAt,value
2023-05-06T00:00:15.774Z,50.907917
2023-05-06T00:01:15.755Z,50.908138
2023-05-06T00:02:15.794Z,50.908268
2023-05-06T00:03:15.843Z,50.908096
2023-05-06T00:04:15.741Z,50.908031
2023-05-06T00:05:15.730Z,50.908024
2023-05-06T00:06:15.713Z,50.908035
2023-05-06T00:07:15.775Z,50.907593
2023-05-06T00:08:15.729Z,50.907955
2023-05-06T00:09:15.691Z,50.908073
2023-05-06T00:10:15.720Z,50.908043
2023-05-06T00:11:15.712Z,50.908058
2023-05-06T00:12:15.696Z,50.908150
2023-05-06T00:13:15.733Z,50.908112
2023-05-06T00:14:15.651Z,50.908073
2023-05-06T00:15:15.639Z,50.908096
2023-05-06T00:16:15.636Z,50.908165
2023-05-06T00:17:15.664Z,50.908173
2023-05-06T00:18:15.619Z,50.908173
2023-05-06T00:19:15.613Z,50.908165
2023-05-06T00:20:15.610Z,50.908108
2023-05-06T00:21:15.595Z,50.908173
2023-05-06T00:22:15.604Z,50.908150
2023-05-06T00:23:15.646Z,50.908199
2023-05-06T00:24:15.576Z,50.908066
2023-05-06T00:25:15.565Z,50.908150
2023-05-06T00:26:15.558Z,50.908184
2023-05-06T00:27:15.576Z,50.908176
2023-05-06T00:28:15.547Z,50.908146
2023-05-06T00:29:15.533Z,50.908123
2023-05-06T00:30:15.531Z,50.908131
2023-05-06T00:31:15.575Z,50.908131
2023-05-06T00:32:15.536Z,50.908134
2023-05-06T00:33:15.508Z,50.908138
2023-05-06T00:34:15.484Z,50.908154
2023-05-06T00:35:15.489Z,50.908138
2023-05-06T00:36:15.506Z,50.908131
2023-05-06T00:37:15.472Z,50.908127
2023-05-06T00:38:15.475Z,50.908138
2023-05-06T00:39:15.556Z,50.908112
2023-05-06T00:40:15.447Z,50.908112
2023-05-06T00:41:15.504Z,50.908131
2023-05-06T00:42:15.437Z,50.908066
2023-05-06T00:43:15.452Z,50.908096
2023-05-06T00:44:15.412Z,50.908119
2023-05-06T00:45:15.447Z,50.908127
2023-05-06T00:46:15.483Z,50.908112
2023-05-06T00:47:15.387Z,50.908131
2023-05-06T00:48:15.403Z,50.908123
2023-05-06T00:49:15.380Z,50.908100
2023-05-06T00:50:16.298Z,50.908100
2023-05-06T00:51:15.377Z,50.908154
2023-05-06T00:52:15.357Z,50.908146
2023-05-06T00:53:15.349Z,50.908123
2023-05-06T00:54:15.335Z,50.908115
2023-05-06T00:55:15.424Z,50.908134
2023-05-06T00:56:15.327Z,50.908157
2023-05-06T00:57:15.309Z,50.908279
2023-05-06T00:58:15.302Z,50.908283
2023-05-06T00:59:15.327Z,50.908207
2023-05-06T01:00:15.319Z,50.908054
2023-05-06T01:01:15.341Z,50.907963
2023-05-06T01:02:15.333Z,50.908012
2023-05-06T01:03:15.367Z,50.908134
2023-05-06T01:04:15.292Z,50.908146
2023-05-06T01:05:15.278Z,50.908535
2023-05-06T01:06:15.257Z,50.908417
2023-05-06T01:07:15.237Z,50.908360
2023-05-06T01:08:15.233Z,50.908257
2023-05-06T01:09:15.246Z,50.908298
2023-05-06T01:10:15.213Z,50.908314
2023-05-06T01:11:15.892Z,50.907936
2023-05-06T01:12:16.201Z,50.907867
2023-05-06T01:13:15.268Z,50.907997
2023-05-06T01:14:15.210Z,50.908154
2023-05-06T01:15:15.179Z,50.908081
2023-05-06T01:16:15.170Z,50.908096
2023-05-06T01:17:15.231Z,50.908070
2023-05-06T01:18:15.167Z,50.908123
2023-05-06T01:19:16.184Z,50.908146
2023-05-06T01:20:15.146Z,50.908127
2023-05-06T01:21:15.138Z,50.908016
2023-05-06T01:22:15.124Z,50.907967
2023-05-06T01:23:15.151Z,50.908070
2023-05-06T01:24:15.104Z,50.908119
2023-05-06T01:25:15.095Z,50.908157
2023-05-06T01:26:15.094Z,50.908169
2023-05-06T01:27:15.104Z,50.908188
2023-05-06T01:28:15.097Z,50.908161
2023-05-06T01:29:15.065Z,50.908169
2023-05-06T01:30:15.063Z,50.908169
2023-05-06T01:31:15.082Z,50.908134
2023-05-06T01:32:15.064Z,50.908123
2023-05-06T01:33:15.065Z,50.908131
2023-05-06T01:34:15.022Z,50.908138
2023-05-06T01:35:16.009Z,50.908134
2023-05-06T01:36:16.025Z,50.908150
2023-05-06T01:37:15.024Z,50.908169
2023-05-06T01:38:15.002Z,50.908146
2023-05-06T01:39:14.982Z,50.908119
2023-05-06T01:40:14.982Z,50.908161
2023-05-06T01:41:14.968Z,50.908154
2023-05-06T01:42:15.012Z,50.908195
2023-05-06T01:43:14.959Z,50.908249
2023-05-06T01:44:14.989Z,50.908218
2023-05-06T01:45:14.942Z,50.908123
2023-05-06T01:46:14.992Z,50.908085
2023-05-06T01:47:14.952Z,50.908073
2023-05-06T01:48:14.919Z,50.908039
2023-05-06T01:49:14.914Z,50.908119
2023-05-06T01:50:14.902Z,50.908112
2023-05-06T01:51:14.923Z,50.908001
2023-05-06T01:52:14.898Z,50.908123
2023-05-06T01:53:15.872Z,50.908150
2023-05-06T01:54:14.870Z,50.908108
2023-05-06T01:55:14.858Z,50.908150
2023-05-06T01:56:14.879Z,50.908176
2023-05-06T01:57:14.830Z,50.908138
2023-05-06T01:58:15.853Z,50.908119
2023-05-06T01:59:14.883Z,50.908108
2023-05-06T02:00:14.850Z,50.908131
2023-05-06T02:01:14.871Z,50.908062
2023-05-06T02:02:14.805Z,50.908024
2023-05-06T02:03:14.862Z,50.908115
2023-05-06T02:04:14.830Z,50.908131
2023-05-06T02:05:15.804Z,50.908184
2023-05-06T02:06:14.786Z,50.908154
2023-05-06T02:07:14.796Z,50.908154
2023-05-06T02:08:14.767Z,50.908131
2023-05-06T02:09:14.753Z,50.908188
2023-05-06T02:10:14.769Z,50.908131
2023-05-06T02:11:14.736Z,50.908119
2023-05-06T02:12:14.728Z,50.908142
2023-05-06T02:13:14.791Z,50.908134
2023-05-06T02:14:14.734Z,50.908134
2023-05-06T02:15:14.792Z,50.908184
2023-05-06T02:16:14.719Z,50.908127
2023-05-06T02:17:14.686Z,50.908184
2023-05-06T02:18:14.673Z,50.908142
2023-05-06T02:19:14.699Z,50.908127
2023-05-06T02:20:14.670Z,50.908039
2023-05-06T02:21:14.647Z,50.908218
2023-05-06T02:22:14.648Z,50.908150
2023-05-06T02:23:14.646Z,50.908150
2023-05-06T02:24:14.658Z,50.908070
2023-05-06T02:25:14.624Z,50.908188
2023-05-06T02:26:14.610Z,50.908131
2023-05-06T02:27:14.611Z,50.908085
2023-05-06T02:28:14.634Z,50.908142
2023-05-06T02:29:14.612Z,50.908066
2023-05-06T02:30:14.595Z,50.908085
2023-05-06T02:31:14.652Z,50.908066
2023-05-06T02:32:14.583Z,50.908077
2023-05-06T02:33:14.593Z,50.908287
2023-05-06T02:34:14.548Z,50.908314
2023-05-06T02:35:14.555Z,50.908218
2023-05-06T02:36:14.543Z,50.908241
2023-05-06T02:37:14.532Z,50.908150
2023-05-06T02:38:14.545Z,50.908165
2023-05-06T02:39:14.514Z,50.908195
2023-05-06T02:40:14.501Z,50.908192
2023-05-06T02:41:14.512Z,50.908195
2023-05-06T02:42:14.542Z,50.908192
2023-05-06T02:43:14.506Z,50.908207
2023-05-06T02:44:14.468Z,50.908173
2023-05-06T02:45:14.478Z,50.908180
2023-05-06T02:46:14.474Z,50.908237
2023-05-06T02:47:14.553Z,50.908150
2023-05-06T02:48:14.444Z,50.908157
2023-05-06T02:49:14.441Z,50.908188
2023-05-06T02:50:14.435Z,50.908173
2023-05-06T02:51:14.417Z,50.908176
2023-05-06T02:52:14.437Z,50.908047
2023-05-06T02:53:14.397Z,50.908245
2023-05-06T02:54:14.407Z,50.908253
2023-05-06T02:55:14.383Z,50.908283
2023-05-06T02:56:14.406Z,50.908237
2023-05-06T02:57:14.388Z,50.908165
2023-05-06T02:58:14.373Z,50.908146
2023-05-06T02:59:14.355Z,50.908237
2023-05-06T03:00:14.341Z,50.908199
2023-05-06T03:01:14.386Z,50.908169
2023-05-06T03:02:14.330Z,50.908173
2023-05-06T03:03:14.318Z,50.908142
2023-05-06T03:04:14.384Z,50.908199
2023-05-06T03:05:14.315Z,50.908188
2023-05-06T03:06:15.315Z,50.908184
2023-05-06T03:07:14.284Z,50.908249
2023-05-06T03:08:14.277Z,50.908195
2023-05-06T03:09:14.266Z,50.908150
2023-05-06T03:10:14.293Z,50.908207
2023-05-06T03:11:14.288Z,50.908192
2023-05-06T03:12:14.257Z,50.908188
2023-05-06T03:13:14.445Z,50.908161
2023-05-06T03:14:14.234Z,50.908054
2023-05-06T03:15:14.245Z,50.908173
2023-05-06T03:16:14.289Z,50.908157
2023-05-06T03:17:14.204Z,50.908161
2023-05-06T03:18:14.201Z,50.908176
2023-05-06T03:19:14.256Z,50.908173
2023-05-06T03:20:14.210Z,50.908188
2023-05-06T03:21:14.219Z,50.908150
2023-05-06T03:22:14.187Z,50.908157
2023-05-06T03:23:14.171Z,50.908165
2023-05-06T03:24:14.159Z,50.908134
2023-05-06T03:25:14.193Z,50.908165
2023-05-06T03:26:14.157Z,50.908165
2023-05-06T03:27:14.135Z,50.908169
2023-05-06T03:28:14.132Z,50.908192
2023-05-06T03:29:14.151Z,50.908218
2023-05-06T03:30:14.129Z,50.908215
2023-05-06T03:31:14.137Z,50.908146
2023-05-06T03:32:14.105Z,50.908180
2023-05-06T03:33:14.096Z,50.908165
2023-05-06T03:34:14.128Z,50.908176
2023-05-06T03:35:14.144Z,50.908180
2023-05-06T03:36:14.067Z,50.908173
2023-05-06T03:37:14.056Z,50.908218
2023-05-06T03:38:14.048Z,50.908188
2023-05-06T03:39:14.079Z,50.908161
2023-05-06T03:40:14.036Z,50.908180
2023-05-06T03:41:14.027Z,50.908173
2023-05-06T03:42:14.039Z,50.908192
2023-05-06T03:43:14.031Z,50.908272
2023-05-06T03:44:14.031Z,50.908192
2023-05-06T03:45:13.998Z,50.908165
2023-05-06T03:46:14.042Z,50.908169
2023-05-06T03:47:13.978Z,50.908115
2023-05-06T03:48:14.106Z,50.908051
2023-05-06T03:49:14.002Z,50.908070
2023-05-06T03:50:13.969Z,50.908184
2023-05-06T03:51:14.009Z,50.908203
2023-05-06T03:52:13.933Z,50.908184
2023-05-06T03:53:13.959Z,50.908176
2023-05-06T03:54:13.920Z,50.908138
2023-05-06T03:55:13.908Z,50.908146
2023-05-06T03:56:13.899Z,50.908161
2023-05-06T03:57:13.936Z,50.908165
2023-05-06T03:58:13.916Z,50.908165
2023-05-06T03:59:13.870Z,50.908165
2023-05-06T04:00:13.870Z,50.908161
2023-05-06T04:01:13.863Z,50.908165
2023-05-06T04:02:13.914Z,50.908161
2023-05-06T04:03:13.983Z,50.908161
2023-05-06T04:04:13.977Z,50.908184
2023-05-06T04:05:13.825Z,50.908165
2023-05-06T04:06:13.822Z,50.908169
2023-05-06T04:07:13.904Z,50.908150
2023-05-06T04:08:13.808Z,50.908150
2023-05-06T04:09:13.792Z,50.908134
2023-05-06T04:10:13.786Z,50.908131
2023-05-06T04:11:13.781Z,50.908131
2023-05-06T04:12:13.814Z,50.908127
2023-05-06T04:13:13.846Z,50.908169
2023-05-06T04:14:13.766Z,50.908131
2023-05-06T04:15:13.744Z,50.908096
2023-05-06T04:16:13.796Z,50.908092
2023-05-06T04:17:13.759Z,50.908108
2023-05-06T04:18:13.726Z,50.908119
2023-05-06T04:19:13.723Z,50.908108
2023-05-06T04:20:13.708Z,50.908123
2023-05-06T04:21:13.747Z,50.908154
2023-05-06T04:22:13.715Z,50.908138
2023-05-06T04:23:13.796Z,50.908123
2023-05-06T04:24:13.699Z,50.908146
2023-05-06T04:25:13.674Z,50.908169
2023-05-06T04:26:13.686Z,50.908131
2023-05-06T04:27:13.656Z,50.908134
2023-05-06T04:28:13.662Z,50.908150
2023-05-06T04:29:13.634Z,50.908131
2023-05-06T04:30:13.659Z,50.908161
2023-05-06T04:31:13.673Z,50.908165
2023-05-06T04:32:13.633Z,50.908119
2023-05-06T04:33:13.658Z,50.908165
2023-05-06T04:34:13.604Z,50.908161
2023-05-06T04:35:13.615Z,50.908112
2023-05-06T04:36:13.589Z,50.908138
2023-05-06T04:37:13.574Z,50.908161
2023-05-06T04:38:13.568Z,50.908150
2023-05-06T04:39:13.565Z,50.908131
2023-05-06T04:40:13.570Z,50.908165
2023-05-06T04:41:13.548Z,50.908192
2023-05-06T04:42:13.537Z,50.908180
2023-05-06T04:43:13.530Z,50.908180
2023-05-06T04:44:13.548Z,50.908154
2023-05-06T04:45:13.542Z,50.908104
2023-05-06T04:46:13.538Z,50.908169
2023-05-06T04:47:13.493Z,50.908169
2023-05-06T04:48:13.496Z,50.908089
2023-05-06T04:49:13.539Z,50.908035
2023-05-06T04:50:13.468Z,50.908131
2023-05-06T04:51:13.465Z,50.908150
2023-05-06T04:52:13.458Z,50.908104
2023-05-06T04:53:13.453Z,50.908062
2023-05-06T04:54:13.461Z,50.908100
2023-05-06T04:55:13.442Z,50.908112
2023-05-06T04:56:13.420Z,50.908115
2023-05-06T04:57:13.445Z,50.908154
2023-05-06T04:58:13.407Z,50.908134
2023-05-06T04:59:13.428Z,50.908123
2023-05-06T05:00:13.410Z,50.908123
2023-05-06T05:01:13.422Z,50.908112
2023-05-06T05:02:13.384Z,50.908108
2023-05-06T05:03:13.504Z,50.908031
2023-05-06T05:04:13.390Z,50.908058
2023-05-06T05:05:13.353Z,50.908062
2023-05-06T05:06:13.347Z,50.908062
2023-05-06T05:07:13.328Z,50.908108
2023-05-06T05:08:14.361Z,50.908104
2023-05-06T05:09:13.327Z,50.908054
2023-05-06T05:10:13.313Z,50.908092
2023-05-06T05:11:13.306Z,50.908062
2023-05-06T05:12:13.311Z,50.908051
2023-05-06T05:13:13.358Z,50.908089
2023-05-06T05:14:13.277Z,50.908077
2023-05-06T05:15:14.277Z,50.908104
2023-05-06T05:16:13.269Z,50.908051
2023-05-06T05:17:13.306Z,50.908062
2023-05-06T05:18:13.284Z,50.908051
2023-05-06T05:19:13.245Z,50.908054
2023-05-06T05:20:13.236Z,50.908054
2023-05-06T05:21:13.233Z,50.908047
2023-05-06T05:22:13.271Z,50.908081
2023-05-06T05:23:13.206Z,50.908142
2023-05-06T05:24:13.203Z,50.908096
2023-05-06T05:25:13.330Z,50.908089
2023-05-06T05:26:13.181Z,50.908096
2023-05-06T05:27:13.264Z,50.908134
2023-05-06T05:28:13.169Z,50.908085
2023-05-06T05:29:13.161Z,50.908089
2023-05-06T05:30:13.156Z,50.908100
2023-05-06T05:31:13.196Z,50.908112
2023-05-06T05:32:13.164Z,50.908131
2023-05-06T05:33:13.148Z,50.908081
2023-05-06T05:34:13.119Z,50.908054
2023-05-06T05:35:13.111Z,50.908062
2023-05-06T05:36:13.119Z,50.908089
2023-05-06T05:37:13.149Z,50.908047
2023-05-06T05:38:13.088Z,50.908043
2023-05-06T05:39:13.081Z,50.908062
2023-05-06T05:40:13.078Z,50.908005
2023-05-06T05:41:14.034Z,50.908051
2023-05-06T05:42:13.061Z,50.908047
2023-05-06T05:43:13.163Z,50.908051
2023-05-06T05:44:13.045Z,50.908009
2023-05-06T05:45:13.066Z,50.908031
2023-05-06T05:46:13.077Z,50.908020
2023-05-06T05:47:13.020Z,50.907993
2023-05-06T05:48:13.003Z,50.908009
2023-05-06T05:49:13.998Z,50.908035
2023-05-06T05:50:13.050Z,50.908051
2023-05-06T05:51:12.988Z,50.908062
2023-05-06T05:52:12.982Z,50.908058
2023-05-06T05:53:12.976Z,50.908016
2023-05-06T05:54:12.964Z,50.908016
2023-05-06T05:55:12.983Z,50.908035
2023-05-06T05:56:12.961Z,50.908031
2023-05-06T05:57:12.938Z,50.908150
2023-05-06T05:58:12.930Z,50.908142
2023-05-06T05:59:12.951Z,50.908142
2023-05-06T06:00:13.765Z,50.908161
2023-05-06T06:01:13.909Z,50.908146
2023-05-06T06:02:12.898Z,50.908123
2023-05-06T06:03:12.989Z,50.908165
2023-05-06T06:04:12.995Z,50.908188
2023-05-06T06:05:12.888Z,50.908131
2023-05-06T06:06:12.869Z,50.908100
2023-05-06T06:07:12.861Z,50.908127
2023-05-06T06:08:12.857Z,50.908165
2023-05-06T06:09:12.871Z,50.908123
2023-05-06T06:10:12.845Z,50.908104
2023-05-06T06:11:12.833Z,50.908112
2023-05-06T06:12:12.826Z,50.908127
2023-05-06T06:13:12.877Z,50.908134
2023-05-06T06:14:12.838Z,50.908108
2023-05-06T06:15:13.013Z,50.908119
2023-05-06T06:16:12.825Z,50.908131
2023-05-06T06:17:12.780Z,50.908123
2023-05-06T06:18:12.805Z,50.908112
2023-05-06T06:19:12.765Z,50.908131
2023-05-06T06:20:12.772Z,50.908150
2023-05-06T06:21:12.752Z,50.908134
2023-05-06T06:22:12.754Z,50.908119
2023-05-06T06:23:12.761Z,50.908123
2023-05-06T06:24:12.747Z,50.908123
2023-05-06T06:25:12.822Z,50.908115
2023-05-06T06:26:12.705Z,50.908123
2023-05-06T06:27:12.889Z,50.908131
2023-05-06T06:28:12.720Z,50.908127
2023-05-06T06:29:12.698Z,50.908115
2023-05-06T06:30:12.688Z,50.908131
2023-05-06T06:31:12.772Z,50.908157
2023-05-06T06:32:12.846Z,50.908123
2023-05-06T06:33:12.658Z,50.908154
2023-05-06T06:34:12.653Z,50.908134
2023-05-06T06:35:12.645Z,50.908104
2023-05-06T06:36:12.639Z,50.908134
2023-05-06T06:37:12.658Z,50.908176
2023-05-06T06:38:12.636Z,50.908169
2023-05-06T06:39:12.620Z,50.908173
2023-05-06T06:40:12.654Z,50.908176
2023-05-06T06:41:12.622Z,50.908169
2023-05-06T06:42:12.622Z,50.908138
2023-05-06T06:43:12.590Z,50.908154
2023-05-06T06:44:12.584Z,50.908180
2023-05-06T06:45:12.645Z,50.908176
2023-05-06T06:46:12.616Z,50.908127
2023-05-06T06:47:12.577Z,50.908199
2023-05-06T06:48:12.585Z,50.908176
2023-05-06T06:49:12.541Z,50.908157
2023-05-06T06:50:12.557Z,50.908115
2023-05-06T06:51:12.564Z,50.908119
2023-05-06T06:52:12.519Z,50.908154
2023-05-06T06:53:12.511Z,50.908146
2023-05-06T06:54:12.501Z,50.908154
2023-05-06T06:55:12.749Z,50.908092
2023-05-06T06:56:12.519Z,50.908154
2023-05-06T06:57:12.482Z,50.908192
2023-05-06T06:58:12.506Z,50.908188
2023-05-06T06:59:12.462Z,50.908165
2023-05-06T07:00:12.498Z,50.908104
2023-05-06T07:01:12.480Z,50.908127
2023-05-06T07:02:12.445Z,50.908119
2023-05-06T07:03:12.438Z,50.908123
2023-05-06T07:04:12.447Z,50.908112
2023-05-06T07:05:12.736Z,50.908089
2023-05-06T07:06:12.421Z,50.908127
2023-05-06T07:07:12.409Z,50.908154
2023-05-06T07:08:12.412Z,50.908154
2023-05-06T07:09:12.399Z,50.908142
2023-05-06T07:10:12.409Z,50.908173
2023-05-06T07:11:12.378Z,50.908157
2023-05-06T07:12:12.421Z,50.908115
2023-05-06T07:13:12.388Z,50.908092
2023-05-06T07:14:12.359Z,50.908131
2023-05-06T07:15:12.561Z,50.908108
2023-05-06T07:16:12.344Z,50.908112
2023-05-06T07:17:12.373Z,50.908169
2023-05-06T07:18:12.388Z,50.908119
2023-05-06T07:19:12.381Z,50.908165
2023-05-06T07:20:12.349Z,50.908039
2023-05-06T07:21:12.316Z,50.908100
2023-05-06T07:22:12.309Z,50.908138
2023-05-06T07:23:12.290Z,50.908161
2023-05-06T07:24:12.324Z,50.908161
2023-05-06T07:25:12.404Z,50.908161
2023-05-06T07:26:12.284Z,50.908157
2023-05-06T07:27:12.267Z,50.908180
2023-05-06T07:28:12.263Z,50.908245
2023-05-06T07:29:12.281Z,50.908264
2023-05-06T07:30:12.277Z,50.908180
2023-05-06T07:31:12.273Z,50.908085
2023-05-06T07:32:12.239Z,50.908127
2023-05-06T07:33:12.230Z,50.908199
2023-05-06T07:34:12.249Z,50.908253
2023-05-06T07:35:12.490Z,50.908234
2023-05-06T07:36:12.208Z,50.908199
2023-05-06T07:37:12.213Z,50.908230
2023-05-06T07:38:12.201Z,50.908138
2023-05-06T07:39:12.218Z,50.908150
2023-05-06T07:40:12.183Z,50.908203
2023-05-06T07:41:12.173Z,50.908268
2023-05-06T07:42:12.178Z,50.908215
2023-05-06T07:43:12.161Z,50.908226
2023-05-06T07:44:12.176Z,50.908211
2023-05-06T07:45:12.304Z,50.908203
2023-05-06T07:46:12.175Z,50.908268
2023-05-06T07:47:12.188Z,50.908184
2023-05-06T07:48:12.191Z,50.908169
2023-05-06T07:49:12.144Z,50.908192
2023-05-06T07:50:12.107Z,50.908218
2023-05-06T07:51:12.161Z,50.908249
2023-05-06T07:52:12.092Z,50.908207
2023-05-06T07:53:12.117Z,50.908192
2023-05-06T07:54:12.076Z,50.908146
2023-05-06T07:55:12.286Z,50.908230
2023-05-06T07:56:12.079Z,50.908230
2023-05-06T07:57:12.066Z,50.908199
2023-05-06T07:58:12.127Z,50.908184
2023-05-06T07:59:12.088Z,50.908230
2023-05-06T08:00:12.042Z,50.908115
2023-05-06T08:01:12.082Z,50.908016
2023-05-06T08:02:12.057Z,50.908031
2023-05-06T08:03:12.159Z,50.908043
2023-05-06T08:04:12.106Z,50.908287
2023-05-06T08:05:12.350Z,50.908230
2023-05-06T08:06:12.003Z,50.908188
2023-05-06T08:07:12.091Z,50.908188
2023-05-06T08:08:11.982Z,50.908180
2023-05-06T08:09:14.864Z,50.908012
2023-05-06T08:10:13.995Z,50.908138
2023-05-06T08:11:11.979Z,50.908188
2023-05-06T08:12:11.989Z,50.908161
2023-05-06T08:13:12.013Z,50.908245
2023-05-06T08:14:11.941Z,50.908215
2023-05-06T08:15:12.048Z,50.907951
2023-05-06T08:16:11.990Z,50.908173
2023-05-06T08:17:11.959Z,50.908154
2023-05-06T08:18:21.894Z,50.907990
2023-05-06T08:19:13.912Z,50.908066
2023-05-06T08:20:11.904Z,50.908218
2023-05-06T08:21:11.933Z,50.908295
2023-05-06T08:22:11.911Z,50.908310
2023-05-06T08:23:11.934Z,50.908230
2023-05-06T08:24:11.879Z,50.908146
2023-05-06T08:25:12.168Z,50.908089
2023-05-06T08:26:11.880Z,50.908131
2023-05-06T08:27:12.862Z,50.908100
2023-05-06T08:28:11.851Z,50.908066
2023-05-06T08:29:11.852Z,50.908047
2023-05-06T08:30:11.848Z,50.908096
2023-05-06T08:31:11.897Z,50.908134
2023-05-06T08:32:11.880Z,50.908085
2023-05-06T08:33:11.829Z,50.908070
2023-05-06T08:34:11.805Z,50.908062
2023-05-06T08:35:12.163Z,50.908012
2023-05-06T08:36:11.833Z,50.907986
2023-05-06T08:37:11.798Z,50.907982
2023-05-06T08:38:11.790Z,50.908012
2023-05-06T08:39:11.908Z,50.908028
2023-05-06T08:40:11.795Z,50.908077
2023-05-06T08:41:11.789Z,50.908108
2023-05-06T08:42:11.766Z,50.908268
2023-05-06T08:43:11.757Z,50.908146
2023-05-06T08:44:11.745Z,50.908108
2023-05-06T08:45:11.903Z,50.908085
2023-05-06T08:46:11.740Z,50.908081
2023-05-06T08:47:12.728Z,50.908115
2023-05-06T08:48:11.724Z,50.908092
2023-05-06T08:49:11.717Z,50.908047
2023-05-06T08:50:11.735Z,50.908031
2023-05-06T08:51:11.692Z,50.908028
2023-05-06T08:52:11.694Z,50.907997
2023-05-06T08:53:11.677Z,50.908016
2023-05-06T08:54:11.699Z,50.908035
2023-05-06T08:55:11.981Z,50.907993
2023-05-06T08:56:12.665Z,50.908035
2023-05-06T08:57:12.564Z,50.908058
2023-05-06T08:58:12.654Z,50.908070
2023-05-06T08:59:11.660Z,50.908066
2023-05-06T09:00:11.631Z,50.908043
2023-05-06T09:01:11.667Z,50.908146
2023-05-06T09:02:11.691Z,50.908127
2023-05-06T09:03:11.674Z,50.908119
2023-05-06T09:04:11.627Z,50.908146
2023-05-06T09:05:11.763Z,50.908108
2023-05-06T09:06:11.587Z,50.908112
2023-05-06T09:07:11.689Z,50.908104
2023-05-06T09:08:11.698Z,50.908092
2023-05-06T09:09:12.595Z,50.908142
2023-05-06T09:10:11.737Z,50.908195
2023-05-06T09:11:11.632Z,50.908146
2023-05-06T09:12:11.570Z,50.908146
2023-05-06T09:13:11.603Z,50.908150
2023-05-06T09:14:11.573Z,50.908157
2023-05-06T09:15:11.850Z,50.908154
2023-05-06T09:16:11.567Z,50.908134
2023-05-06T09:17:11.591Z,50.908123
2023-05-06T09:18:11.724Z,50.908123
2023-05-06T09:19:11.507Z,50.908138
2023-05-06T09:20:11.496Z,50.908146
2023-05-06T09:21:11.491Z,50.908127
2023-05-06T09:22:11.486Z,50.908119
2023-05-06T09:23:11.494Z,50.908146
2023-05-06T09:24:11.495Z,50.908104
2023-05-06T09:25:11.813Z,50.908100
2023-05-06T09:26:11.466Z,50.908134
2023-05-06T09:27:12.339Z,50.908123
2023-05-06T09:28:11.474Z,50.908115
2023-05-06T09:29:11.437Z,50.908131
2023-05-06T09:30:11.429Z,50.908119
2023-05-06T09:31:11.471Z,50.908119
2023-05-06T09:32:11.441Z,50.908134
2023-05-06T09:33:11.478Z,50.908119
2023-05-06T09:34:11.403Z,50.908138
2023-05-06T09:35:11.552Z,50.908146
2023-05-06T09:36:11.375Z,50.908154
2023-05-06T09:37:11.399Z,50.908146
2023-05-06T09:38:11.375Z,50.908138
2023-05-06T09:39:11.356Z,50.908127
2023-05-06T09:40:11.358Z,50.908146
2023-05-06T09:41:11.378Z,50.908150
2023-05-06T09:42:11.366Z,50.908127
2023-05-06T09:43:11.448Z,50.908142
2023-05-06T09:44:11.324Z,50.908161
2023-05-06T09:45:12.495Z,50.908203
2023-05-06T09:46:11.374Z,50.908138
2023-05-06T09:47:11.306Z,50.908138
2023-05-06T09:48:11.306Z,50.908131
2023-05-06T09:49:11.287Z,50.907990
2023-05-06T09:50:11.284Z,50.908123
2023-05-06T09:51:11.296Z,50.908150
2023-05-06T09:52:11.282Z,50.908192
2023-05-06T09:53:11.268Z,50.908142
2023-05-06T09:54:11.250Z,50.908150
2023-05-06T09:55:11.488Z,50.908173
2023-05-06T09:56:11.268Z,50.908157
2023-05-06T09:57:11.233Z,50.908161
2023-05-06T09:58:11.338Z,50.908165
2023-05-06T09:59:11.333Z,50.908165
2023-05-06T10:00:11.228Z,50.908161
2023-05-06T10:01:12.039Z,50.908142
2023-05-06T10:02:11.207Z,50.908123
2023-05-06T10:03:11.332Z,50.908092
2023-05-06T10:04:11.336Z,50.908104
2023-05-06T10:05:12.683Z,50.908131
2023-05-06T10:06:11.152Z,50.908104
2023-05-06T10:07:11.149Z,50.908157
2023-05-06T10:08:11.132Z,50.908138
2023-05-06T10:09:11.132Z,50.908123
2023-05-06T10:10:11.153Z,50.908134
2023-05-06T10:11:11.125Z,50.908188
2023-05-06T10:12:11.108Z,50.908253
2023-05-06T10:13:11.167Z,50.908226
2023-05-06T10:14:11.128Z,50.908169
2023-05-06T10:15:11.425Z,50.908165
2023-05-06T10:16:12.758Z,50.908127
2023-05-06T10:17:11.064Z,50.908119
2023-05-06T10:18:11.129Z,50.908157
2023-05-06T10:19:11.068Z,50.908165
2023-05-06T10:20:11.072Z,50.908180
2023-05-06T10:21:11.029Z,50.908146
2023-05-06T10:22:11.029Z,50.908154
2023-05-06T10:23:11.037Z,50.908150
2023-05-06T10:24:11.044Z,50.908184
2023-05-06T10:25:11.233Z,50.908161
2023-05-06T10:26:10.997Z,50.908146
2023-05-06T10:27:10.988Z,50.908150
2023-05-06T10:28:22.258Z,50.908161
2023-05-06T10:29:12.025Z,50.908115
2023-05-06T10:30:10.980Z,50.908154
2023-05-06T10:31:11.063Z,50.908134
2023-05-06T10:32:10.950Z,50.908115
2023-05-06T10:33:10.967Z,50.908119
2023-05-06T10:34:10.972Z,50.908142
2023-05-06T10:35:11.111Z,50.908173
2023-05-06T10:36:10.912Z,50.908184
2023-05-06T10:37:10.901Z,50.908195
2023-05-06T10:38:10.938Z,50.908173
2023-05-06T10:39:10.892Z,50.908195
2023-05-06T10:40:10.892Z,50.908154
2023-05-06T10:41:10.868Z,50.908237
2023-05-06T10:42:10.882Z,50.908184
2023-05-06T10:43:10.879Z,50.908157
2023-05-06T10:44:10.852Z,50.908195
2023-05-06T10:45:11.047Z,50.908169
2023-05-06T10:46:10.928Z,50.908199
2023-05-06T10:47:10.864Z,50.908222
2023-05-06T10:48:10.835Z,50.908222
2023-05-06T10:49:10.840Z,50.908218
2023-05-06T10:50:10.811Z,50.908154
2023-05-06T10:51:10.805Z,50.908203
2023-05-06T10:52:10.854Z,50.908314
2023-05-06T10:53:10.784Z,50.908188
2023-05-06T10:54:10.772Z,50.908089
2023-05-06T10:55:10.992Z,50.908161
2023-05-06T10:56:10.752Z,50.908176
2023-05-06T10:57:10.782Z,50.908226
2023-05-06T10:58:10.740Z,50.908215
2023-05-06T10:59:10.753Z,50.908230
2023-05-06T11:00:10.737Z,50.908195
2023-05-06T11:01:10.755Z,50.908230
2023-05-06T11:02:10.814Z,50.908257
2023-05-06T11:03:10.877Z,50.908184
2023-05-06T11:04:10.715Z,50.908161
2023-05-06T11:05:10.938Z,50.908188
2023-05-06T11:06:10.700Z,50.908199
2023-05-06T11:07:10.696Z,50.908176
2023-05-06T11:08:10.658Z,50.908192
2023-05-06T11:09:10.649Z,50.908203
2023-05-06T11:10:10.637Z,50.908176
2023-05-06T11:11:10.671Z,50.908104
2023-05-06T11:12:10.635Z,50.908154
2023-05-06T11:13:10.674Z,50.908192
2023-05-06T11:14:10.601Z,50.908180
2023-05-06T11:15:10.770Z,50.908157
2023-05-06T11:16:10.798Z,50.908138
2023-05-06T11:17:10.624Z,50.908218
2023-05-06T11:18:10.572Z,50.908218
2023-05-06T11:19:10.581Z,50.908165
2023-05-06T11:20:10.787Z,50.908226
2023-05-06T11:21:10.591Z,50.908154
2023-05-06T11:22:10.555Z,50.908157
2023-05-06T11:23:10.547Z,50.908184
2023-05-06T11:24:10.556Z,50.908154